sensor_id;sensor_type;location;lat;lon;timestamp;P1;durP1;ratioP1;P2;durP2;ratioP2
57567;SDS011;43403;51.948;5.922;2022-12-07T00:01:27;14.02;;;9.20;;
57567;SDS011;43403;51.948;5.922;2022-12-07T00:03:56;12.57;;;8.82;;
57567;SDS011;43403;51.948;5.922;2022-12-07T00:06:33;15.52;;;8.63;;
57567;SDS011;43403;51.948;5.922;2022-12-07T00:09:01;14.15;;;9.52;;
57567;SDS011;43403;51.948;5.922;2022-12-07T00:11:29;12.85;;;8.50;;
57567;SDS011;43403;51.948;5.922;2022-12-07T00:13:56;10.73;;;8.35;;
57567;SDS011;43403;51.948;5.922;2022-12-07T00:16:26;11.18;;;8.35;;
57567;SDS011;43403;51.948;5.922;2022-12-07T00:18:54;13.88;;;7.80;;
57567;SDS011;43403;51.948;5.922;2022-12-07T00:21:22;15.15;;;8.93;;
57567;SDS011;43403;51.948;5.922;2022-12-07T00:23:51;13.98;;;8.45;;
57567;SDS011;43403;51.948;5.922;2022-12-07T00:26:19;13.23;;;8.88;;
57567;SDS011;43403;51.948;5.922;2022-12-07T00:28:48;13.90;;;8.88;;
57567;SDS011;43403;51.948;5.922;2022-12-07T00:31:17;13.48;;;8.73;;
57567;SDS011;43403;51.948;5.922;2022-12-07T00:33:47;15.35;;;8.80;;
57567;SDS011;43403;51.948;5.922;2022-12-07T00:36:15;12.82;;;9.02;;
57567;SDS011;43403;51.948;5.922;2022-12-07T00:38:51;13.55;;;8.55;;
57567;SDS011;43403;51.948;5.922;2022-12-07T00:41:18;17.73;;;8.70;;
57567;SDS011;43403;51.948;5.922;2022-12-07T00:46:13;13.63;;;8.48;;
57567;SDS011;43403;51.948;5.922;2022-12-07T00:48:41;13.05;;;8.07;;
57567;SDS011;43403;51.948;5.922;2022-12-07T00:51:08;12.88;;;8.38;;
57567;SDS011;43403;51.948;5.922;2022-12-07T00:53:37;14.23;;;8.50;;
57567;SDS011;43403;51.948;5.922;2022-12-07T00:56:08;12.77;;;8.32;;
57567;SDS011;43403;51.948;5.922;2022-12-07T00:58:37;12.15;;;8.13;;
57567;SDS011;43403;51.948;5.922;2022-12-07T01:01:04;11.32;;;8.40;;
57567;SDS011;43403;51.948;5.922;2022-12-07T01:03:32;16.15;;;8.52;;
57567;SDS011;43403;51.948;5.922;2022-12-07T01:05:59;14.07;;;9.10;;
57567;SDS011;43403;51.948;5.922;2022-12-07T01:08:26;13.68;;;9.23;;
57567;SDS011;43403;51.948;5.922;2022-12-07T01:11:02;15.10;;;9.15;;
57567;SDS011;43403;51.948;5.922;2022-12-07T01:13:30;13.00;;;8.43;;
57567;SDS011;43403;51.948;5.922;2022-12-07T01:15:59;14.15;;;9.25;;
57567;SDS011;43403;51.948;5.922;2022-12-07T01:18:26;14.30;;;8.90;;
57567;SDS011;43403;51.948;5.922;2022-12-07T01:21:01;13.82;;;9.10;;
57567;SDS011;43403;51.948;5.922;2022-12-07T01:23:29;13.38;;;9.43;;
57567;SDS011;43403;51.948;5.922;2022-12-07T01:25:57;13.43;;;9.40;;
57567;SDS011;43403;51.948;5.922;2022-12-07T01:28:24;14.15;;;9.80;;
57567;SDS011;43403;51.948;5.922;2022-12-07T01:30:59;14.82;;;9.43;;
57567;SDS011;43403;51.948;5.922;2022-12-07T01:33:27;11.57;;;8.88;;
57567;SDS011;43403;51.948;5.922;2022-12-07T01:36:00;11.37;;;8.43;;
57567;SDS011;43403;51.948;5.922;2022-12-07T01:38:35;15.82;;;9.73;;
57567;SDS011;43403;51.948;5.922;2022-12-07T01:41:01;12.63;;;8.95;;
57567;SDS011;43403;51.948;5.922;2022-12-07T01:43:32;15.25;;;9.13;;
57567;SDS011;43403;51.948;5.922;2022-12-07T01:45:59;12.68;;;9.32;;
57567;SDS011;43403;51.948;5.922;2022-12-07T01:48:31;14.45;;;8.90;;
57567;SDS011;43403;51.948;5.922;2022-12-07T01:51:06;13.95;;;8.88;;
57567;SDS011;43403;51.948;5.922;2022-12-07T01:53:38;12.02;;;8.68;;
57567;SDS011;43403;51.948;5.922;2022-12-07T01:56:09;12.70;;;8.32;;
57567;SDS011;43403;51.948;5.922;2022-12-07T01:58:41;13.70;;;9.30;;
57567;SDS011;43403;51.948;5.922;2022-12-07T02:01:09;11.60;;;8.38;;
57567;SDS011;43403;51.948;5.922;2022-12-07T02:03:39;12.95;;;8.55;;
57567;SDS011;43403;51.948;5.922;2022-12-07T02:06:08;11.70;;;8.77;;
57567;SDS011;43403;51.948;5.922;2022-12-07T02:08:36;12.48;;;8.82;;
57567;SDS011;43403;51.948;5.922;2022-12-07T02:11:03;12.27;;;8.18;;
57567;SDS011;43403;51.948;5.922;2022-12-07T02:13:34;13.55;;;7.93;;
57567;SDS011;43403;51.948;5.922;2022-12-07T02:18:42;10.77;;;7.97;;
57567;SDS011;43403;51.948;5.922;2022-12-07T02:32:27;13.05;;;7.50;;
57567;SDS011;43403;51.948;5.922;2022-12-07T02:35:07;12.30;;;7.78;;
57567;SDS011;43403;51.948;5.922;2022-12-07T02:37:59;10.18;;;7.97;;
57567;SDS011;43403;51.948;5.922;2022-12-07T02:40:33;13.80;;;8.50;;
57567;SDS011;43403;51.948;5.922;2022-12-07T02:43:25;15.50;;;6.82;;
57567;SDS011;43403;51.948;5.922;2022-12-07T02:46:01;13.98;;;7.57;;
57567;SDS011;43403;51.948;5.922;2022-12-07T02:48:33;10.25;;;6.65;;
57567;SDS011;43403;51.948;5.922;2022-12-07T02:51:00;12.45;;;7.20;;
57567;SDS011;43403;51.948;5.922;2022-12-07T02:53:39;11.18;;;7.75;;
57567;SDS011;43403;51.948;5.922;2022-12-07T03:05:07;11.60;;;6.78;;
57567;SDS011;43403;51.948;5.922;2022-12-07T03:07:59;12.38;;;6.80;;
57567;SDS011;43403;51.948;5.922;2022-12-07T03:10:35;11.88;;;6.82;;
57567;SDS011;43403;51.948;5.922;2022-12-07T03:13:10;12.18;;;6.13;;
57567;SDS011;43403;51.948;5.922;2022-12-07T03:15:46;11.02;;;7.15;;
57567;SDS011;43403;51.948;5.922;2022-12-07T03:18:21;12.10;;;6.80;;
57567;SDS011;43403;51.948;5.922;2022-12-07T03:20:53;10.50;;;6.50;;
57567;SDS011;43403;51.948;5.922;2022-12-07T03:23:23;15.40;;;7.55;;
57567;SDS011;43403;51.948;5.922;2022-12-07T03:25:52;13.60;;;5.78;;
57567;SDS011;43403;51.948;5.922;2022-12-07T03:28:26;11.60;;;6.13;;
57567;SDS011;43403;51.948;5.922;2022-12-07T03:31:02;12.38;;;6.22;;
57567;SDS011;43403;51.948;5.922;2022-12-07T03:33:39;9.23;;;5.80;;
57567;SDS011;43403;51.948;5.922;2022-12-07T03:36:35;14.85;;;5.50;;
57567;SDS011;43403;51.948;5.922;2022-12-07T03:41:47;14.27;;;6.00;;
57567;SDS011;43403;51.948;5.922;2022-12-07T03:44:15;10.35;;;5.93;;
57567;SDS011;43403;51.948;5.922;2022-12-07T03:46:44;11.80;;;5.13;;
57567;SDS011;43403;51.948;5.922;2022-12-07T03:49:27;8.57;;;5.38;;
57567;SDS011;43403;51.948;5.922;2022-12-07T03:55:05;8.35;;;5.38;;
57567;SDS011;43403;51.948;5.922;2022-12-07T03:57:49;11.52;;;5.57;;
57567;SDS011;43403;51.948;5.922;2022-12-07T04:00:19;9.65;;;5.25;;
57567;SDS011;43403;51.948;5.922;2022-12-07T04:02:46;11.23;;;5.07;;
57567;SDS011;43403;51.948;5.922;2022-12-07T04:05:13;11.98;;;4.80;;
57567;SDS011;43403;51.948;5.922;2022-12-07T04:07:40;10.20;;;4.90;;
57567;SDS011;43403;51.948;5.922;2022-12-07T04:10:07;12.13;;;5.18;;
57567;SDS011;43403;51.948;5.922;2022-12-07T04:12:33;9.60;;;4.55;;
57567;SDS011;43403;51.948;5.922;2022-12-07T04:15:00;9.13;;;4.72;;
57567;SDS011;43403;51.948;5.922;2022-12-07T04:17:26;12.80;;;4.97;;
57567;SDS011;43403;51.948;5.922;2022-12-07T04:19:53;8.13;;;4.80;;
57567;SDS011;43403;51.948;5.922;2022-12-07T04:22:19;9.43;;;4.80;;
57567;SDS011;43403;51.948;5.922;2022-12-07T04:24:46;9.63;;;4.60;;
57567;SDS011;43403;51.948;5.922;2022-12-07T04:27:12;8.57;;;5.03;;
57567;SDS011;43403;51.948;5.922;2022-12-07T04:29:38;8.88;;;4.70;;
57567;SDS011;43403;51.948;5.922;2022-12-07T04:32:05;10.68;;;4.50;;
57567;SDS011;43403;51.948;5.922;2022-12-07T04:34:31;10.00;;;4.65;;
57567;SDS011;43403;51.948;5.922;2022-12-07T04:36:58;13.23;;;4.88;;
57567;SDS011;43403;51.948;5.922;2022-12-07T04:39:26;10.82;;;4.30;;
57567;SDS011;43403;51.948;5.922;2022-12-07T04:41:54;10.57;;;4.72;;
57567;SDS011;43403;51.948;5.922;2022-12-07T04:44:21;12.63;;;5.22;;
57567;SDS011;43403;51.948;5.922;2022-12-07T04:46:49;10.95;;;4.97;;
57567;SDS011;43403;51.948;5.922;2022-12-07T04:49:16;10.30;;;5.00;;
57567;SDS011;43403;51.948;5.922;2022-12-07T04:51:44;9.97;;;5.03;;
57567;SDS011;43403;51.948;5.922;2022-12-07T04:54:11;11.60;;;4.90;;
57567;SDS011;43403;51.948;5.922;2022-12-07T04:56:39;8.73;;;4.83;;
57567;SDS011;43403;51.948;5.922;2022-12-07T04:59:06;9.60;;;4.85;;
57567;SDS011;43403;51.948;5.922;2022-12-07T05:01:33;13.50;;;5.03;;
57567;SDS011;43403;51.948;5.922;2022-12-07T05:04:00;7.72;;;4.82;;
57567;SDS011;43403;51.948;5.922;2022-12-07T05:06:26;9.18;;;4.72;;
57567;SDS011;43403;51.948;5.922;2022-12-07T05:08:53;9.27;;;4.55;;
57567;SDS011;43403;51.948;5.922;2022-12-07T05:11:19;8.02;;;4.90;;
57567;SDS011;43403;51.948;5.922;2022-12-07T05:14:05;10.57;;;4.47;;
57567;SDS011;43403;51.948;5.922;2022-12-07T05:16:38;11.50;;;4.55;;
57567;SDS011;43403;51.948;5.922;2022-12-07T05:19:05;10.23;;;5.05;;
57567;SDS011;43403;51.948;5.922;2022-12-07T05:21:33;8.50;;;5.00;;
57567;SDS011;43403;51.948;5.922;2022-12-07T05:23:59;8.95;;;5.03;;
57567;SDS011;43403;51.948;5.922;2022-12-07T05:26:26;8.65;;;4.50;;
57567;SDS011;43403;51.948;5.922;2022-12-07T05:28:53;6.97;;;4.93;;
57567;SDS011;43403;51.948;5.922;2022-12-07T05:31:21;10.73;;;4.55;;
57567;SDS011;43403;51.948;5.922;2022-12-07T05:33:49;8.17;;;4.30;;
57567;SDS011;43403;51.948;5.922;2022-12-07T05:36:16;12.68;;;4.60;;
57567;SDS011;43403;51.948;5.922;2022-12-07T05:38:42;8.80;;;4.32;;
57567;SDS011;43403;51.948;5.922;2022-12-07T05:41:09;10.23;;;4.65;;
57567;SDS011;43403;51.948;5.922;2022-12-07T05:44:00;8.50;;;4.13;;
57567;SDS011;43403;51.948;5.922;2022-12-07T05:46:26;14.18;;;4.63;;
57567;SDS011;43403;51.948;5.922;2022-12-07T05:48:53;11.75;;;5.00;;
57567;SDS011;43403;51.948;5.922;2022-12-07T05:51:19;8.32;;;4.55;;
57567;SDS011;43403;51.948;5.922;2022-12-07T05:53:46;8.38;;;4.80;;
57567;SDS011;43403;51.948;5.922;2022-12-07T05:56:12;12.82;;;4.75;;
57567;SDS011;43403;51.948;5.922;2022-12-07T05:58:38;9.35;;;4.18;;
57567;SDS011;43403;51.948;5.922;2022-12-07T06:01:23;8.05;;;3.85;;
57567;SDS011;43403;51.948;5.922;2022-12-07T06:03:50;10.45;;;4.75;;
57567;SDS011;43403;51.948;5.922;2022-12-07T06:06:16;9.88;;;4.20;;
57567;SDS011;43403;51.948;5.922;2022-12-07T06:08:43;11.50;;;4.70;;
57567;SDS011;43403;51.948;5.922;2022-12-07T06:11:09;8.65;;;4.18;;
57567;SDS011;43403;51.948;5.922;2022-12-07T06:13:54;11.48;;;4.90;;
57567;SDS011;43403;51.948;5.922;2022-12-07T06:16:21;7.15;;;4.32;;
57567;SDS011;43403;51.948;5.922;2022-12-07T06:18:47;10.43;;;4.57;;
57567;SDS011;43403;51.948;5.922;2022-12-07T06:21:14;7.20;;;3.92;;
57567;SDS011;43403;51.948;5.922;2022-12-07T06:23:40;6.45;;;3.97;;
57567;SDS011;43403;51.948;5.922;2022-12-07T06:26:07;9.25;;;3.85;;
57567;SDS011;43403;51.948;5.922;2022-12-07T06:28:33;12.30;;;4.03;;
57567;SDS011;43403;51.948;5.922;2022-12-07T06:31:00;7.20;;;4.28;;
57567;SDS011;43403;51.948;5.922;2022-12-07T06:33:28;11.32;;;3.83;;
57567;SDS011;43403;51.948;5.922;2022-12-07T06:35:55;7.80;;;3.78;;
57567;SDS011;43403;51.948;5.922;2022-12-07T06:38:22;8.45;;;4.22;;
57567;SDS011;43403;51.948;5.922;2022-12-07T06:40:48;11.93;;;3.83;;
57567;SDS011;43403;51.948;5.922;2022-12-07T06:43:15;7.85;;;3.80;;
57567;SDS011;43403;51.948;5.922;2022-12-07T06:45:41;9.63;;;4.80;;
57567;SDS011;43403;51.948;5.922;2022-12-07T06:48:08;10.95;;;4.43;;
57567;SDS011;43403;51.948;5.922;2022-12-07T06:50:34;9.23;;;4.10;;
57567;SDS011;43403;51.948;5.922;2022-12-07T06:53:01;11.35;;;3.72;;
57567;SDS011;43403;51.948;5.922;2022-12-07T06:55:27;10.90;;;3.90;;
57567;SDS011;43403;51.948;5.922;2022-12-07T06:57:54;7.50;;;3.25;;
57567;SDS011;43403;51.948;5.922;2022-12-07T07:00:20;8.15;;;3.38;;
57567;SDS011;43403;51.948;5.922;2022-12-07T07:02:47;9.38;;;3.97;;
57567;SDS011;43403;51.948;5.922;2022-12-07T07:05:14;6.10;;;3.50;;
57567;SDS011;43403;51.948;5.922;2022-12-07T07:07:42;13.00;;;5.00;;
57567;SDS011;43403;51.948;5.922;2022-12-07T07:10:29;7.53;;;3.88;;
57567;SDS011;43403;51.948;5.922;2022-12-07T07:12:55;8.60;;;4.38;;
57567;SDS011;43403;51.948;5.922;2022-12-07T07:15:23;12.73;;;4.05;;
57567;SDS011;43403;51.948;5.922;2022-12-07T07:17:49;10.85;;;3.53;;
57567;SDS011;43403;51.948;5.922;2022-12-07T07:20:16;11.05;;;3.88;;
57567;SDS011;43403;51.948;5.922;2022-12-07T07:22:42;8.65;;;4.50;;
57567;SDS011;43403;51.948;5.922;2022-12-07T07:25:09;9.98;;;3.47;;
57567;SDS011;43403;51.948;5.922;2022-12-07T07:27:35;9.85;;;3.65;;
57567;SDS011;43403;51.948;5.922;2022-12-07T07:30:02;7.75;;;3.15;;
57567;SDS011;43403;51.948;5.922;2022-12-07T07:32:29;8.37;;;3.10;;
57567;SDS011;43403;51.948;5.922;2022-12-07T07:34:56;10.13;;;3.05;;
57567;SDS011;43403;51.948;5.922;2022-12-07T07:37:22;7.50;;;3.78;;
57567;SDS011;43403;51.948;5.922;2022-12-07T07:39:49;8.57;;;3.10;;
57567;SDS011;43403;51.948;5.922;2022-12-07T07:42:16;6.38;;;2.58;;
57567;SDS011;43403;51.948;5.922;2022-12-07T07:44:42;7.40;;;2.80;;
57567;SDS011;43403;51.948;5.922;2022-12-07T07:47:09;12.63;;;3.53;;
57567;SDS011;43403;51.948;5.922;2022-12-07T07:49:36;4.45;;;2.20;;
57567;SDS011;43403;51.948;5.922;2022-12-07T07:52:02;6.57;;;2.90;;
57567;SDS011;43403;51.948;5.922;2022-12-07T07:54:29;7.75;;;3.03;;
57567;SDS011;43403;51.948;5.922;2022-12-07T07:56:56;7.30;;;2.97;;
57567;SDS011;43403;51.948;5.922;2022-12-07T07:59:22;9.02;;;2.70;;
57567;SDS011;43403;51.948;5.922;2022-12-07T08:01:49;11.45;;;3.00;;
57567;SDS011;43403;51.948;5.922;2022-12-07T08:04:16;10.60;;;3.47;;
57567;SDS011;43403;51.948;5.922;2022-12-07T08:06:42;4.50;;;2.50;;
57567;SDS011;43403;51.948;5.922;2022-12-07T08:09:09;10.68;;;3.25;;
57567;SDS011;43403;51.948;5.922;2022-12-07T08:11:36;4.43;;;2.50;;
57567;SDS011;43403;51.948;5.922;2022-12-07T08:14:03;6.22;;;2.42;;
57567;SDS011;43403;51.948;5.922;2022-12-07T08:16:29;6.53;;;2.35;;
57567;SDS011;43403;51.948;5.922;2022-12-07T08:18:56;10.07;;;2.53;;
57567;SDS011;43403;51.948;5.922;2022-12-07T08:21:22;6.13;;;2.70;;
57567;SDS011;43403;51.948;5.922;2022-12-07T08:23:49;9.23;;;2.53;;
57567;SDS011;43403;51.948;5.922;2022-12-07T08:26:16;10.68;;;2.70;;
57567;SDS011;43403;51.948;5.922;2022-12-07T08:28:43;10.45;;;2.67;;
57567;SDS011;43403;51.948;5.922;2022-12-07T08:31:12;7.82;;;2.65;;
57567;SDS011;43403;51.948;5.922;2022-12-07T08:33:40;6.95;;;2.80;;
57567;SDS011;43403;51.948;5.922;2022-12-07T08:36:08;9.60;;;3.05;;
57567;SDS011;43403;51.948;5.922;2022-12-07T08:38:38;10.70;;;3.00;;
57567;SDS011;43403;51.948;5.922;2022-12-07T08:41:05;9.52;;;2.83;;
57567;SDS011;43403;51.948;5.922;2022-12-07T08:43:33;8.38;;;2.70;;
57567;SDS011;43403;51.948;5.922;2022-12-07T08:48:33;7.25;;;2.58;;
57567;SDS011;43403;51.948;5.922;2022-12-07T08:51:04;7.10;;;2.78;;
57567;SDS011;43403;51.948;5.922;2022-12-07T08:53:32;8.75;;;2.60;;
57567;SDS011;43403;51.948;5.922;2022-12-07T08:56:00;8.45;;;2.80;;
57567;SDS011;43403;51.948;5.922;2022-12-07T08:58:27;10.77;;;2.95;;
57567;SDS011;43403;51.948;5.922;2022-12-07T09:00:53;14.15;;;3.25;;
57567;SDS011;43403;51.948;5.922;2022-12-07T09:03:20;13.18;;;3.38;;
57567;SDS011;43403;51.948;5.922;2022-12-07T09:05:47;10.07;;;3.42;;
57567;SDS011;43403;51.948;5.922;2022-12-07T09:08:13;5.32;;;3.28;;
57567;SDS011;43403;51.948;5.922;2022-12-07T09:10:40;8.35;;;3.65;;
57567;SDS011;43403;51.948;5.922;2022-12-07T09:13:07;8.70;;;2.95;;
57567;SDS011;43403;51.948;5.922;2022-12-07T09:15:33;11.70;;;3.90;;
57567;SDS011;43403;51.948;5.922;2022-12-07T09:18:00;10.25;;;2.75;;
57567;SDS011;43403;51.948;5.922;2022-12-07T09:20:26;8.48;;;2.88;;
57567;SDS011;43403;51.948;5.922;2022-12-07T09:22:53;8.15;;;2.65;;
57567;SDS011;43403;51.948;5.922;2022-12-07T09:25:20;11.50;;;2.35;;
57567;SDS011;43403;51.948;5.922;2022-12-07T09:27:46;6.43;;;2.22;;
57567;SDS011;43403;51.948;5.922;2022-12-07T09:30:13;8.85;;;2.80;;
57567;SDS011;43403;51.948;5.922;2022-12-07T09:32:39;5.55;;;2.10;;
57567;SDS011;43403;51.948;5.922;2022-12-07T09:35:06;10.32;;;2.47;;
57567;SDS011;43403;51.948;5.922;2022-12-07T09:37:33;8.48;;;2.83;;
57567;SDS011;43403;51.948;5.922;2022-12-07T09:40:02;9.20;;;2.10;;
57567;SDS011;43403;51.948;5.922;2022-12-07T09:42:41;7.82;;;2.35;;
57567;SDS011;43403;51.948;5.922;2022-12-07T09:45:18;8.07;;;2.20;;
57567;SDS011;43403;51.948;5.922;2022-12-07T09:47:51;11.48;;;2.58;;
57567;SDS011;43403;51.948;5.922;2022-12-07T09:50:21;10.75;;;2.83;;
57567;SDS011;43403;51.948;5.922;2022-12-07T09:52:51;8.88;;;2.70;;
57567;SDS011;43403;51.948;5.922;2022-12-07T09:55:24;6.68;;;2.92;;
57567;SDS011;43403;51.948;5.922;2022-12-07T09:57:55;7.60;;;2.90;;
57567;SDS011;43403;51.948;5.922;2022-12-07T10:00:22;6.65;;;2.58;;
57567;SDS011;43403;51.948;5.922;2022-12-07T10:02:52;11.05;;;3.30;;
57567;SDS011;43403;51.948;5.922;2022-12-07T10:05:24;12.30;;;3.47;;
57567;SDS011;43403;51.948;5.922;2022-12-07T10:07:55;8.10;;;2.95;;
57567;SDS011;43403;51.948;5.922;2022-12-07T10:10:26;6.65;;;2.72;;
57567;SDS011;43403;51.948;5.922;2022-12-07T10:13:04;7.30;;;2.67;;
57567;SDS011;43403;51.948;5.922;2022-12-07T10:18:31;6.03;;;2.40;;
57567;SDS011;43403;51.948;5.922;2022-12-07T10:21:13;12.30;;;2.60;;
57567;SDS011;43403;51.948;5.922;2022-12-07T10:24:00;10.55;;;2.47;;
57567;SDS011;43403;51.948;5.922;2022-12-07T10:29:14;9.10;;;2.80;;
57567;SDS011;43403;51.948;5.922;2022-12-07T10:31:59;7.30;;;2.70;;
57567;SDS011;43403;51.948;5.922;2022-12-07T10:34:48;8.82;;;2.60;;
57567;SDS011;43403;51.948;5.922;2022-12-07T10:47:43;8.48;;;2.50;;
57567;SDS011;43403;51.948;5.922;2022-12-07T10:50:18;6.05;;;2.55;;
57567;SDS011;43403;51.948;5.922;2022-12-07T11:13:22;5.00;;;1.90;;
57567;SDS011;43403;51.948;5.922;2022-12-07T11:15:31;9.95;;;1.98;;
57567;SDS011;43403;51.948;5.922;2022-12-07T11:18:27;10.15;;;1.92;;
57567;SDS011;43403;51.948;5.922;2022-12-07T11:26:53;7.38;;;2.00;;
57567;SDS011;43403;51.948;5.922;2022-12-07T11:29:28;9.85;;;2.97;;
57567;SDS011;43403;51.948;5.922;2022-12-07T11:37:33;9.18;;;2.95;;
57567;SDS011;43403;51.948;5.922;2022-12-07T11:40:08;6.95;;;2.22;;
57567;SDS011;43403;51.948;5.922;2022-12-07T11:45:46;8.00;;;1.95;;
57567;SDS011;43403;51.948;5.922;2022-12-07T11:48:22;5.95;;;2.28;;
57567;SDS011;43403;51.948;5.922;2022-12-07T11:50:56;6.68;;;1.98;;
57567;SDS011;43403;51.948;5.922;2022-12-07T11:53:26;9.02;;;2.00;;
57567;SDS011;43403;51.948;5.922;2022-12-07T11:56:09;8.73;;;2.17;;
57567;SDS011;43403;51.948;5.922;2022-12-07T11:58:44;6.20;;;2.05;;
57567;SDS011;43403;51.948;5.922;2022-12-07T12:01:18;7.25;;;1.63;;
57567;SDS011;43403;51.948;5.922;2022-12-07T12:06:36;5.95;;;2.10;;
57567;SDS011;43403;51.948;5.922;2022-12-07T12:09:05;7.78;;;1.75;;
57567;SDS011;43403;51.948;5.922;2022-12-07T12:21:18;4.05;;;1.70;;
57567;SDS011;43403;51.948;5.922;2022-12-07T12:23:48;7.53;;;1.80;;
57567;SDS011;43403;51.948;5.922;2022-12-07T12:26:21;5.63;;;1.38;;
57567;SDS011;43403;51.948;5.922;2022-12-07T12:29:38;7.13;;;1.52;;
57567;SDS011;43403;51.948;5.922;2022-12-07T12:32:12;5.75;;;1.67;;
57567;SDS011;43403;51.948;5.922;2022-12-07T12:38:20;5.70;;;1.60;;
57567;SDS011;43403;51.948;5.922;2022-12-07T12:45:19;4.60;;;1.55;;
57567;SDS011;43403;51.948;5.922;2022-12-07T12:47:57;11.00;;;3.42;;
57567;SDS011;43403;51.948;5.922;2022-12-07T12:50:34;6.82;;;1.70;;
57567;SDS011;43403;51.948;5.922;2022-12-07T12:53:03;6.38;;;1.45;;
57567;SDS011;43403;51.948;5.922;2022-12-07T13:01:47;10.07;;;1.65;;
57567;SDS011;43403;51.948;5.922;2022-12-07T13:04:26;8.15;;;2.13;;
57567;SDS011;43403;51.948;5.922;2022-12-07T13:07:09;10.40;;;2.70;;
57567;SDS011;43403;51.948;5.922;2022-12-07T13:09:37;10.70;;;2.83;;
57567;SDS011;43403;51.948;5.922;2022-12-07T13:12:12;9.60;;;3.47;;
57567;SDS011;43403;51.948;5.922;2022-12-07T13:14:43;12.70;;;3.40;;
57567;SDS011;43403;51.948;5.922;2022-12-07T13:24:57;10.93;;;4.15;;
57567;SDS011;43403;51.948;5.922;2022-12-07T13:27:37;10.70;;;3.72;;
57567;SDS011;43403;51.948;5.922;2022-12-07T13:30:16;9.82;;;3.45;;
57567;SDS011;43403;51.948;5.922;2022-12-07T13:32:51;7.78;;;2.85;;
57567;SDS011;43403;51.948;5.922;2022-12-07T13:35:26;8.27;;;2.97;;
57567;SDS011;43403;51.948;5.922;2022-12-07T13:38:01;8.23;;;3.17;;
57567;SDS011;43403;51.948;5.922;2022-12-07T13:40:31;10.75;;;3.35;;
57567;SDS011;43403;51.948;5.922;2022-12-07T13:42:58;11.20;;;3.78;;
57567;SDS011;43403;51.948;5.922;2022-12-07T13:45:28;11.65;;;3.50;;
57567;SDS011;43403;51.948;5.922;2022-12-07T13:50:54;12.48;;;3.25;;
57567;SDS011;43403;51.948;5.922;2022-12-07T13:53:23;11.68;;;2.72;;
57567;SDS011;43403;51.948;5.922;2022-12-07T13:55:50;8.05;;;3.25;;
57567;SDS011;43403;51.948;5.922;2022-12-07T13:58:20;9.63;;;3.50;;
57567;SDS011;43403;51.948;5.922;2022-12-07T14:00:48;9.75;;;3.20;;
57567;SDS011;43403;51.948;5.922;2022-12-07T14:05:42;9.35;;;2.47;;
57567;SDS011;43403;51.948;5.922;2022-12-07T14:10:53;7.10;;;2.28;;
57567;SDS011;43403;51.948;5.922;2022-12-07T14:18:54;4.28;;;1.50;;
57567;SDS011;43403;51.948;5.922;2022-12-07T14:21:24;11.80;;;2.08;;
57567;SDS011;43403;51.948;5.922;2022-12-07T14:26:39;7.95;;;2.08;;
57567;SDS011;43403;51.948;5.922;2022-12-07T14:31:51;5.32;;;1.17;;
57567;SDS011;43403;51.948;5.922;2022-12-07T14:34:20;3.05;;;1.00;;
57567;SDS011;43403;51.948;5.922;2022-12-07T14:36:47;5.78;;;1.20;;
57567;SDS011;43403;51.948;5.922;2022-12-07T14:39:14;4.85;;;0.82;;
57567;SDS011;43403;51.948;5.922;2022-12-07T14:41:40;6.60;;;1.15;;
57567;SDS011;43403;51.948;5.922;2022-12-07T14:44:16;5.65;;;1.20;;
57567;SDS011;43403;51.948;5.922;2022-12-07T14:46:51;3.75;;;1.30;;
57567;SDS011;43403;51.948;5.922;2022-12-07T14:49:37;5.38;;;1.83;;
57567;SDS011;43403;51.948;5.922;2022-12-07T14:52:04;7.50;;;1.67;;
57567;SDS011;43403;51.948;5.922;2022-12-07T14:54:57;6.95;;;2.10;;
57567;SDS011;43403;51.948;5.922;2022-12-07T14:57:24;6.55;;;2.00;;
57567;SDS011;43403;51.948;5.922;2022-12-07T14:59:51;7.13;;;1.77;;
57567;SDS011;43403;51.948;5.922;2022-12-07T15:02:17;4.93;;;1.83;;
57567;SDS011;43403;51.948;5.922;2022-12-07T15:04:44;7.75;;;1.60;;
57567;SDS011;43403;51.948;5.922;2022-12-07T15:07:20;4.95;;;1.52;;
57567;SDS011;43403;51.948;5.922;2022-12-07T15:09:47;3.35;;;1.33;;
57567;SDS011;43403;51.948;5.922;2022-12-07T15:12:14;9.45;;;1.73;;
57567;SDS011;43403;51.948;5.922;2022-12-07T15:14:41;6.65;;;1.35;;
57567;SDS011;43403;51.948;5.922;2022-12-07T15:17:09;5.55;;;1.30;;
57567;SDS011;43403;51.948;5.922;2022-12-07T15:19:51;3.35;;;1.50;;
57567;SDS011;43403;51.948;5.922;2022-12-07T15:22:17;14.00;;;1.63;;
57567;SDS011;43403;51.948;5.922;2022-12-07T15:24:44;6.18;;;1.48;;
57567;SDS011;43403;51.948;5.922;2022-12-07T15:27:11;5.03;;;1.70;;
57567;SDS011;43403;51.948;5.922;2022-12-07T15:29:37;6.25;;;1.80;;
57567;SDS011;43403;51.948;5.922;2022-12-07T15:32:04;5.25;;;1.80;;
57567;SDS011;43403;51.948;5.922;2022-12-07T15:34:31;9.60;;;2.45;;
57567;SDS011;43403;51.948;5.922;2022-12-07T15:37:05;8.38;;;2.22;;
57567;SDS011;43403;51.948;5.922;2022-12-07T15:39:32;10.73;;;2.83;;
57567;SDS011;43403;51.948;5.922;2022-12-07T15:41:59;6.40;;;2.45;;
57567;SDS011;43403;51.948;5.922;2022-12-07T15:44:26;9.73;;;2.40;;
57567;SDS011;43403;51.948;5.922;2022-12-07T15:47:11;8.57;;;3.00;;
57567;SDS011;43403;51.948;5.922;2022-12-07T15:49:38;7.43;;;3.13;;
57567;SDS011;43403;51.948;5.922;2022-12-07T15:52:04;13.75;;;3.72;;
57567;SDS011;43403;51.948;5.922;2022-12-07T15:54:31;7.03;;;2.85;;
57567;SDS011;43403;51.948;5.922;2022-12-07T15:56:58;10.20;;;4.55;;
57567;SDS011;43403;51.948;5.922;2022-12-07T15:59:26;6.22;;;3.10;;
57567;SDS011;43403;51.948;5.922;2022-12-07T16:01:54;7.28;;;2.67;;
57567;SDS011;43403;51.948;5.922;2022-12-07T16:04:22;7.22;;;2.78;;
57567;SDS011;43403;51.948;5.922;2022-12-07T16:06:49;8.63;;;3.20;;
57567;SDS011;43403;51.948;5.922;2022-12-07T16:09:17;9.63;;;3.60;;
57567;SDS011;43403;51.948;5.922;2022-12-07T16:11:44;6.78;;;2.58;;
57567;SDS011;43403;51.948;5.922;2022-12-07T16:14:11;9.27;;;3.40;;
57567;SDS011;43403;51.948;5.922;2022-12-07T16:16:38;8.05;;;2.65;;
57567;SDS011;43403;51.948;5.922;2022-12-07T16:19:07;9.65;;;2.90;;
57567;SDS011;43403;51.948;5.922;2022-12-07T16:21:34;8.35;;;2.58;;
57567;SDS011;43403;51.948;5.922;2022-12-07T16:24:01;6.25;;;2.53;;
57567;SDS011;43403;51.948;5.922;2022-12-07T16:26:28;6.47;;;2.83;;
57567;SDS011;43403;51.948;5.922;2022-12-07T16:28:55;6.55;;;2.13;;
57567;SDS011;43403;51.948;5.922;2022-12-07T16:31:23;4.80;;;2.08;;
57567;SDS011;43403;51.948;5.922;2022-12-07T16:33:52;8.80;;;2.45;;
57567;SDS011;43403;51.948;5.922;2022-12-07T16:36:21;3.72;;;1.80;;
57567;SDS011;43403;51.948;5.922;2022-12-07T16:39:10;8.50;;;2.40;;
57567;SDS011;43403;51.948;5.922;2022-12-07T16:41:37;4.78;;;1.80;;
57567;SDS011;43403;51.948;5.922;2022-12-07T16:44:04;4.57;;;1.70;;
57567;SDS011;43403;51.948;5.922;2022-12-07T16:48:59;7.13;;;2.30;;
57567;SDS011;43403;51.948;5.922;2022-12-07T16:51:26;8.82;;;2.42;;
57567;SDS011;43403;51.948;5.922;2022-12-07T16:53:53;6.40;;;1.90;;
57567;SDS011;43403;51.948;5.922;2022-12-07T16:56:20;5.95;;;2.00;;
57567;SDS011;43403;51.948;5.922;2022-12-07T16:58:46;8.38;;;2.08;;
57567;SDS011;43403;51.948;5.922;2022-12-07T17:01:15;3.50;;;1.92;;
57567;SDS011;43403;51.948;5.922;2022-12-07T17:03:43;5.15;;;2.17;;
57567;SDS011;43403;51.948;5.922;2022-12-07T17:06:15;6.70;;;2.17;;
57567;SDS011;43403;51.948;5.922;2022-12-07T17:08:44;6.97;;;2.42;;
57567;SDS011;43403;51.948;5.922;2022-12-07T17:11:15;6.22;;;2.88;;
57567;SDS011;43403;51.948;5.922;2022-12-07T17:13:43;5.88;;;2.78;;
57567;SDS011;43403;51.948;5.922;2022-12-07T17:16:28;5.95;;;2.70;;
57567;SDS011;43403;51.948;5.922;2022-12-07T17:18:55;5.97;;;2.00;;